Time;durP1;ratioP1;P1;durP2;ratioP2;P2;SDS_P1;SDS_P2;PMS_P1;PMS_P2;Temp;Humidity;BMP_temperature;BMP_pressure;BME280_temperature;BME280_humidity;BME280_pressure;Samples;Min_cycle;Max_cycle;Signal;HPM_P1;HPM_P2
2023/02/22 00:03:14;;;;;;;5.83;5.03;;;9.30;33.50;;;;;;10363977;28;20270;-69
2023/02/22 00:08:18;;;;;;;5.30;4.80;;;9.30;33.30;;;;;;10361713;28;20238;-69
2023/02/22 00:13:22;;;;;;;4.93;4.53;;;9.30;33.20;;;;;;10359375;28;20223;-69
2023/02/22 00:18:27;;;;;;;6.27;5.13;;;9.20;33.30;;;;;;10365824;28;20234;-69
2023/02/22 00:23:31;;;;;;;5.97;4.93;;;9.20;33.40;;;;;;10362363;28;20230;-69
2023/02/22 00:28:36;;;;;;;6.33;5.33;;;9.10;33.40;;;;;;10361677;28;20663;-69
2023/02/22 00:33:40;;;;;;;5.80;5.27;;;9.10;33.50;;;;;;10362821;28;20233;-69
2023/02/22 00:38:43;;;;;;;4.43;4.07;;;9.00;33.40;;;;;;10362524;28;20696;-69
2023/02/22 00:43:48;;;;;;;5.03;4.53;;;9.00;33.50;;;;;;10362581;28;21052;-69
2023/02/22 00:48:51;;;;;;;4.80;4.40;;;8.90;33.80;;;;;;10363806;28;20229;-69
2023/02/22 00:53:55;;;;;;;5.03;4.23;;;8.90;33.60;;;;;;10362030;28;21047;-69
2023/02/22 00:58:59;;;;;;;4.60;4.20;;;8.90;33.70;;;;;;10360892;28;20719;-69
2023/02/22 01:04:02;;;;;;;5.73;4.57;;;8.90;33.90;;;;;;10360266;28;20855;-70
2023/02/22 01:09:06;;;;;;;5.77;4.23;;;8.80;33.40;;;;;;10361105;28;20249;-70
2023/02/22 01:14:11;;;;;;;5.00;4.50;;;8.70;33.40;;;;;;10360308;28;20245;-70
2023/02/22 01:19:14;;;;;;;4.50;4.10;;;8.60;33.70;;;;;;10359599;28;20238;-70
2023/02/22 01:24:18;;;;;;;4.53;4.13;;;8.40;33.50;;;;;;10360733;28;20800;-70
2023/02/22 01:29:23;;;;;;;5.80;4.40;;;8.20;34.50;;;;;;10358891;28;20229;-70
2023/02/22 01:34:26;;;;;;;4.77;4.30;;;8.20;34.20;;;;;;10359145;28;20280;-70
2023/02/22 01:39:29;;;;;;;4.73;4.23;;;8.20;34.10;;;;;;10360128;28;20230;-70
2023/02/22 01:44:36;;;;;;;4.90;3.97;;;8.10;34.00;;;;;;10359441;28;20233;-71
2023/02/22 01:49:43;;;;;;;4.20;3.90;;;8.20;34.50;;;;;;10358992;28;20639;-71
2023/02/22 01:54:50;;;;;;;4.10;3.80;;;8.10;34.40;;;;;;10358185;28;20516;-71
2023/02/22 02:00:00;;;;;;;3.57;3.20;;;8.10;34.30;;;;;;10360513;28;20706;-71
2023/02/22 02:05:06;;;;;;;4.93;3.70;;;8.10;34.40;;;;;;10359474;28;20503;-72
2023/02/22 02:10:13;;;;;;;3.50;3.20;;;8.10;34.00;;;;;;10357747;28;20626;-72
2023/02/22 02:15:25;;;;;;;3.40;2.97;;;8.10;34.00;;;;;;10358137;28;20234;-72
2023/02/22 02:20:39;;;;;;;5.03;3.37;;;8.00;34.60;;;;;;10359583;28;20234;-72
2023/02/22 02:26:29;;;;;;;3.67;3.37;;;8.00;34.70;;;;;;10358810;28;21042;-73
2023/02/22 02:32:15;;;;;;;4.80;4.30;;;8.00;34.80;;;;;;10332626;28;20228;-72
2023/02/22 02:37:30;;;;;;;4.27;3.87;;;8.00;34.90;;;;;;10352576;28;20610;-72
2023/02/22 02:42:38;;;;;;;4.47;3.90;;;7.90;34.30;;;;;;10358591;28;20734;-72
2023/02/22 02:47:47;;;;;;;3.83;3.40;;;7.70;34.10;;;;;;10358577;28;20633;-72
2023/02/22 02:52:54;;;;;;;5.10;3.73;;;7.60;34.60;;;;;;10359566;28;20230;-73
2023/02/22 02:57:58;;;;;;;5.00;4.07;;;7.50;34.40;;;;;;10359550;28;20321;-73
2023/02/22 03:03:17;;;;;;;5.97;3.73;;;7.50;34.40;;;;;;10358573;28;20222;-73
2023/02/22 03:08:27;;;;;;;3.73;3.43;;;7.50;35.20;;;;;;10359468;28;20237;-73
2023/02/22 03:13:37;;;;;;;4.57;4.17;;;7.50;34.80;;;;;;10358162;28;20292;-73
2023/02/22 03:18:50;;;;;;;3.87;3.57;;;7.50;34.90;;;;;;10359751;28;20241;-73
2023/02/22 03:24:04;;;;;;;3.60;3.30;;;7.50;34.80;;;;;;10366673;28;20234;-73
2023/02/22 03:29:11;;;;;;;3.60;3.30;;;7.50;35.10;;;;;;10366727;28;20240;-73
2023/02/22 03:34:19;;;;;;;4.07;3.67;;;7.40;34.70;;;;;;10365576;28;20602;-73
2023/02/22 03:39:29;;;;;;;3.90;3.60;;;7.40;34.80;;;;;;10368801;28;20237;-74
2023/02/22 03:44:36;;;;;;;3.50;3.20;;;7.50;34.80;;;;;;10365374;28;20237;-74
2023/02/22 03:49:46;;;;;;;3.90;3.20;;;7.50;34.60;;;;;;10364857;28;20239;-74
2023/02/22 03:54:52;;;;;;;4.37;3.67;;;7.50;35.00;;;;;;10368134;28;20641;-74
2023/02/22 03:59:55;;;;;;;3.83;3.53;;;7.50;34.60;;;;;;10364987;28;20276;-74
2023/02/22 04:05:00;;;;;;;3.97;3.67;;;7.50;34.60;;;;;;10364310;28;20241;-74
2023/02/22 04:10:07;;;;;;;3.97;3.63;;;7.50;34.80;;;;;;10360210;28;20611;-74
2023/02/22 04:15:14;;;;;;;4.17;3.70;;;7.50;34.60;;;;;;10367749;28;20234;-74
2023/02/22 04:20:24;;;;;;;4.47;4.07;;;7.40;34.70;;;;;;10359004;28;20222;-74
2023/02/22 04:25:27;;;;;;;4.43;3.33;;;7.40;34.60;;;;;;10365531;28;20226;-74
2023/02/22 04:30:30;;;;;;;3.80;3.40;;;7.40;34.40;;;;;;10366437;28;20234;-74
2023/02/22 04:35:35;;;;;;;3.93;3.43;;;7.30;34.30;;;;;;10365775;28;20319;-74
2023/02/22 04:40:38;;;;;;;4.17;3.77;;;7.30;34.60;;;;;;10368158;28;20725;-74
2023/02/22 04:45:41;;;;;;;4.50;4.00;;;7.20;34.40;;;;;;10364276;28;20575;-74
2023/02/22 04:50:46;;;;;;;3.80;3.50;;;7.10;34.50;;;;;;10369770;28;20237;-73
2023/02/22 04:55:50;;;;;;;4.30;3.90;;;7.10;34.70;;;;;;10365390;28;20229;-74
2023/02/22 05:00:53;;;;;;;4.87;4.43;;;7.00;34.40;;;;;;10363943;28;20234;-73
2023/02/22 05:05:57;;;;;;;5.17;4.67;;;7.00;34.60;;;;;;10365169;28;20730;-73
2023/02/22 05:11:00;;;;;;;6.13;4.87;;;6.90;34.90;;;;;;10364004;28;20234;-73
2023/02/22 05:16:04;;;;;;;7.83;6.37;;;6.90;34.90;;;;;;10363968;28;20237;-73
2023/02/22 05:21:09;;;;;;;8.83;6.80;;;6.80;35.00;;;;;;10360742;28;20262;-73
2023/02/22 05:26:12;;;;;;;7.90;5.73;;;6.80;35.30;;;;;;10361481;28;20699;-73
2023/02/22 05:31:16;;;;;;;5.97;4.87;;;6.90;35.10;;;;;;10358560;28;20238;-73
2023/02/22 05:36:21;;;;;;;5.67;4.50;;;6.90;35.10;;;;;;10359959;28;20230;-73
2023/02/22 05:41:24;;;;;;;4.27;3.50;;;6.90;35.20;;;;;;10358021;28;20241;-73
2023/02/22 05:46:27;;;;;;;5.80;4.03;;;6.90;35.00;;;;;;10341066;28;20231;-73
2023/02/22 05:51:32;;;;;;;4.50;4.10;;;6.90;34.90;;;;;;10325436;28;20313;-73
2023/02/22 05:56:35;;;;;;;4.03;3.63;;;6.90;35.10;;;;;;10348636;28;20246;-73
2023/02/22 06:01:38;;;;;;;5.03;4.53;;;6.90;34.90;;;;;;10356276;28;20233;-73
2023/02/22 06:06:43;;;;;;;4.43;3.77;;;6.90;34.90;;;;;;10358444;28;20226;-73
2023/02/22 06:11:46;;;;;;;5.00;4.10;;;6.80;35.10;;;;;;10361075;28;20215;-72
2023/02/22 06:16:53;;;;;;;4.43;4.03;;;6.80;34.90;;;;;;10361356;28;20714;-72
2023/02/22 06:21:58;;;;;;;5.00;4.53;;;6.80;35.30;;;;;;10357886;28;20647;-72
2023/02/22 06:27:02;;;;;;;5.80;5.20;;;6.80;35.30;;;;;;10358215;28;20344;-73
2023/02/22 06:32:05;;;;;;;6.23;5.60;;;6.80;35.20;;;;;;10357699;28;20233;-73
2023/02/22 06:37:10;;;;;;;8.03;6.17;;;6.80;35.10;;;;;;10358586;28;20733;-73
2023/02/22 06:42:14;;;;;;;6.80;5.93;;;6.80;35.20;;;;;;10358491;28;20749;-72
2023/02/22 06:47:19;;;;;;;5.90;5.37;;;6.80;35.10;;;;;;10358590;28;20325;-72
2023/02/22 06:52:24;;;;;;;6.80;6.10;;;6.80;35.30;;;;;;10357942;28;20234;-72
2023/02/22 06:57:27;;;;;;;6.40;5.80;;;6.80;35.40;;;;;;10365914;28;20237;-72
2023/02/22 07:02:30;;;;;;;7.77;6.97;;;6.80;35.20;;;;;;10365877;28;20575;-72
2023/02/22 07:07:35;;;;;;;10.67;9.37;;;6.80;35.40;;;;;;10366192;28;20238;-72
2023/02/22 07:12:38;;;;;;;9.50;8.50;;;6.80;35.70;;;;;;10365420;28;20238;-72
2023/02/22 07:17:41;;;;;;;8.00;7.20;;;6.80;35.50;;;;;;10366910;28;20238;-72
2023/02/22 07:22:45;;;;;;;7.50;6.67;;;6.80;35.70;;;;;;10365526;28;21015;-72
2023/02/22 07:27:49;;;;;;;8.33;7.10;;;6.80;36.00;;;;;;10364741;28;20245;-72
2023/02/22 07:32:53;;;;;;;7.37;6.60;;;6.80;35.90;;;;;;10364485;28;20235;-72
2023/02/22 07:37:58;;;;;;;7.83;7.13;;;6.90;36.10;;;;;;10364002;28;20242;-72
2023/02/22 07:43:03;;;;;;;13.33;7.13;;;6.90;36.50;;;;;;10364226;28;20234;-72
2023/02/22 07:48:09;;;;;;;10.73;5.33;;;6.90;36.50;;;;;;10364516;28;20226;-72
2023/02/22 07:53:16;;;;;;;6.73;5.73;;;6.90;36.60;;;;;;10365628;28;20712;-72
2023/02/22 07:58:23;;;;;;;7.13;5.60;;;6.90;37.40;;;;;;10364085;28;20230;-70
2023/02/22 08:03:27;;;;;;;7.90;5.33;;;7.00;37.20;;;;;;10363952;28;20257;-70
2023/02/22 08:08:31;;;;;;;6.93;5.73;;;7.10;37.30;;;;;;10363448;28;20237;-69
2023/02/22 08:13:36;;;;;;;7.10;6.13;;;7.20;37.80;;;;;;10360573;28;20232;-69
2023/02/22 08:18:39;;;;;;;8.17;6.30;;;7.40;37.80;;;;;;10363912;28;20617;-69
2023/02/22 08:23:44;;;;;;;8.97;6.17;;;7.60;37.90;;;;;;10361082;28;20231;-69
2023/02/22 08:28:48;;;;;;;6.80;6.13;;;7.80;38.50;;;;;;10360590;28;20237;-69
2023/02/22 08:33:51;;;;;;;6.53;5.93;;;8.00;38.50;;;;;;10360920;28;20355;-69
2023/02/22 08:38:56;;;;;;;6.33;5.73;;;8.20;38.40;;;;;;10361721;28;20230;-69
2023/02/22 08:44:01;;;;;;;10.53;6.17;;;8.40;39.10;;;;;;10361927;28;20233;-69
2023/02/22 08:49:05;;;;;;;6.93;6.33;;;8.60;38.70;;;;;;10360519;28;20645;-69
2023/02/22 08:54:10;;;;;;;6.67;6.07;;;8.80;39.00;;;;;;10361055;28;20226;-69
2023/02/22 08:59:13;;;;;;;7.13;5.67;;;9.00;39.70;;;;;;10361008;28;20665;-69
2023/02/22 09:04:16;;;;;;;6.03;5.53;;;9.30;39.40;;;;;;10360512;28;20284;-69
2023/02/22 09:09:21;;;;;;;6.50;5.90;;;9.50;39.50;;;;;;10359158;28;20245;-69
2023/02/22 09:14:24;;;;;;;8.13;6.80;;;9.70;39.70;;;;;;10358020;28;20222;-68
2023/02/22 09:19:27;;;;;;;6.80;6.10;;;9.90;39.30;;;;;;10361920;28;20226;-68
2023/02/22 09:24:32;;;;;;;7.63;6.93;;;10.10;38.20;;;;;;10358650;28;20268;-68
2023/02/22 09:29:35;;;;;;;7.23;6.53;;;10.30;38.90;;;;;;10359158;28;20234;-68
2023/02/22 09:34:44;;;;;;;8.00;7.17;;;10.50;38.70;;;;;;10360775;28;20234;-68
2023/02/22 09:39:50;;;;;;;8.47;7.70;;;10.70;38.60;;;;;;10358677;28;20280;-68
2023/02/22 09:44:58;;;;;;;8.77;7.80;;;11.00;39.20;;;;;;10359605;28;20226;-68
2023/02/22 09:50:09;;;;;;;8.57;7.77;;;11.20;39.40;;;;;;10357829;28;20686;-68
2023/02/22 09:55:27;;;;;;;9.23;8.43;;;11.50;39.40;;;;;;10358437;28;20571;-69
2023/02/22 10:00:33;;;;;;;8.57;7.77;;;11.80;40.20;;;;;;10359411;28;20599;-68
2023/02/22 10:05:40;;;;;;;8.47;7.67;;;12.00;39.00;;;;;;10357428;28;20512;-68
2023/02/22 10:10:51;;;;;;;8.93;8.00;;;12.30;39.00;;;;;;10358287;28;20271;-68
2023/02/22 10:15:59;;;;;;;8.00;7.20;;;12.50;39.00;;;;;;10356875;28;20234;-68
2023/02/22 10:21:13;;;;;;;7.37;6.77;;;12.80;38.80;;;;;;10358299;28;20237;-69
2023/02/22 10:26:25;;;;;;;7.57;6.87;;;13.10;39.10;;;;;;10358528;28;20243;-69
2023/02/22 10:31:32;;;;;;;7.00;6.40;;;13.30;39.20;;;;;;10364157;28;20234;-68
2023/02/22 10:36:38;;;;;;;7.57;6.87;;;13.60;39.10;;;;;;10366101;28;20230;-68
2023/02/22 10:41:49;;;;;;;6.87;6.27;;;13.90;38.90;;;;;;10366257;28;20252;-68
2023/02/22 10:46:53;;;;;;;6.57;5.97;;;14.20;38.90;;;;;;10365797;28;20241;-68
2023/02/22 10:52:01;;;;;;;7.30;6.20;;;14.50;38.60;;;;;;10365291;28;20703;-68
2023/02/22 10:57:06;;;;;;;6.57;5.87;;;14.70;38.30;;;;;;10364695;28;20454;-68
2023/02/22 11:02:19;;;;;;;5.87;5.33;;;14.90;38.10;;;;;;10364232;28;20230;-68
2023/02/22 11:07:26;;;;;;;5.27;3.77;;;15.20;38.10;;;;;;10365318;28;20602;-68
2023/02/22 11:12:32;;;;;;;3.30;3.00;;;15.40;37.10;;;;;;10362289;28;20230;-68
2023/02/22 11:17:35;;;;;;;3.53;3.23;;;15.60;36.80;;;;;;10365212;28;20719;-68
2023/02/22 11:22:41;;;;;;;3.50;3.20;;;15.90;37.00;;;;;;10365095;28;20280;-68
2023/02/22 11:27:46;;;;;;;3.70;3.40;;;16.10;36.50;;;;;;10364907;28;20237;-68
2023/02/22 11:32:53;;;;;;;3.43;3.13;;;16.30;36.30;;;;;;10363680;28;20237;-68
2023/02/22 11:38:10;;;;;;;4.00;3.60;;;16.60;36.40;;;;;;10363708;28;20280;-68
2023/02/22 11:43:17;;;;;;;3.57;3.27;;;16.80;35.70;;;;;;10361951;28;20980;-69
2023/02/22 11:48:22;;;;;;;3.87;3.57;;;17.00;35.60;;;;;;10364435;28;20261;-68
2023/02/22 11:53:32;;;;;;;3.17;2.97;;;17.20;35.50;;;;;;10363511;28;20233;-68
2023/02/22 11:58:45;;;;;;;3.77;3.47;;;17.30;34.10;;;;;;10362862;28;20593;-68
2023/02/22 12:04:07;;;;;;;3.83;3.53;;;17.40;34.20;;;;;;10363872;28;20228;-68
2023/02/22 12:09:17;;;;;;;3.50;3.20;;;17.50;33.60;;;;;;10362323;28;20226;-68
2023/02/22 12:14:30;;;;;;;3.30;3.00;;;17.50;33.80;;;;;;10362975;28;20321;-68
2023/02/22 12:19:37;;;;;;;3.30;3.10;;;17.50;33.30;;;;;;10361980;28;20288;-69
2023/02/22 12:24:45;;;;;;;3.70;3.40;;;17.50;34.30;;;;;;10365664;28;20234;-68
2023/02/22 12:29:56;;;;;;;3.13;2.90;;;17.60;33.90;;;;;;10361130;28;20238;-68
2023/02/22 12:35:04;;;;;;;3.03;2.83;;;17.70;33.40;;;;;;10361169;28;20230;-68
2023/02/22 12:40:16;;;;;;;3.23;2.93;;;17.80;33.30;;;;;;10361977;28;20225;-69
2023/02/22 12:45:28;;;;;;;3.70;3.20;;;17.80;32.90;;;;;;10360524;28;20261;-69
2023/02/22 12:50:33;;;;;;;3.77;3.10;;;17.80;32.90;;;;;;10361471;28;20226;-68
2023/02/22 12:55:44;;;;;;;3.40;3.20;;;17.90;33.30;;;;;;10360620;28;20754;-68
2023/02/22 13:00:55;;;;;;;3.67;3.37;;;17.90;32.60;;;;;;10360905;28;20230;-69
2023/02/22 13:06:07;;;;;;;3.30;3.07;;;17.90;32.40;;;;;;10358746;28;20257;-68
2023/02/22 13:11:18;;;;;;;3.40;3.10;;;17.90;32.60;;;;;;10361287;28;20233;-69
2023/02/22 13:16:40;;;;;;;3.67;3.23;;;18.00;32.70;;;;;;10360220;28;20744;-68
2023/02/22 13:21:49;;;;;;;3.63;3.33;;;18.10;32.50;;;;;;10360279;28;20226;-68
2023/02/22 13:26:55;;;;;;;2.90;2.60;;;18.10;32.40;;;;;;10358258;28;20765;-69
2023/02/22 13:32:24;;;;;;;3.47;3.03;;;18.20;32.80;;;;;;10358787;28;20229;-68
2023/02/22 13:37:51;;;;;;;3.10;2.80;;;18.30;32.30;;;;;;10353970;28;20313;-69
2023/02/22 13:43:22;;;;;;;3.67;2.90;;;18.30;32.20;;;;;;10357947;28;20652;-69
2023/02/22 13:48:59;;;;;;;3.60;3.30;;;18.40;32.30;;;;;;10359508;28;20635;-69
2023/02/22 13:54:06;;;;;;;3.50;3.23;;;18.40;31.90;;;;;;10355046;28;20796;-69
2023/02/22 13:59:24;;;;;;;2.70;2.50;;;18.50;32.30;;;;;;10358930;28;20238;-69
2023/02/22 14:04:38;;;;;;;2.97;2.77;;;18.60;31.70;;;;;;10358317;28;20733;-69
2023/02/22 14:09:46;;;;;;;3.67;2.77;;;18.60;31.60;;;;;;10357341;28;20234;-69
2023/02/22 14:15:13;;;;;;;3.13;2.83;;;18.60;31.60;;;;;;10357043;28;20619;-69
2023/02/22 14:20:37;;;;;;;3.17;2.80;;;18.60;31.20;;;;;;10359123;28;20221;-69
2023/02/22 14:25:42;;;;;;;3.00;2.80;;;18.60;31.60;;;;;;10358239;28;20230;-69
2023/02/22 14:30:46;;;;;;;2.73;2.50;;;18.60;31.90;;;;;;10356929;28;20227;-68
2023/02/22 14:35:51;;;;;;;2.90;2.27;;;18.60;32.10;;;;;;10357220;28;20230;-69
2023/02/22 14:40:58;;;;;;;2.40;2.20;;;18.60;31.90;;;;;;10359098;28;20253;-69
2023/02/22 14:46:04;;;;;;;1.77;1.67;;;18.70;31.50;;;;;;10356375;28;20601;-69
2023/02/22 14:51:17;;;;;;;1.80;1.67;;;18.70;31.50;;;;;;10357863;28;20824;-70
2023/02/22 14:56:29;;;;;;;1.77;1.67;;;18.80;30.50;;;;;;10357381;28;20241;-69
2023/02/22 15:01:33;;;;;;;2.07;1.70;;;18.80;30.80;;;;;;10357422;28;20559;-69
2023/02/22 15:07:07;;;;;;;1.90;1.60;;;18.80;30.90;;;;;;10356604;28;20280;-68
2023/02/22 15:12:13;;;;;;;1.77;1.67;;;18.80;30.20;;;;;;10357429;28;20226;-69
2023/02/22 15:17:20;;;;;;;1.83;1.73;;;18.80;30.50;;;;;;10360730;28;20238;-69
2023/02/22 15:22:29;;;;;;;6.47;5.10;;;18.80;30.40;;;;;;10363763;28;20586;-74
2023/02/22 15:27:35;;;;;;;5.53;3.50;;;18.80;30.20;;;;;;10363533;28;20226;-74
2023/02/22 15:32:40;;;;;;;3.77;3.47;;;18.80;30.80;;;;;;10363872;28;20573;-74
2023/02/22 15:38:02;;;;;;;5.03;4.63;;;18.80;31.60;;;;;;10367010;28;20230;-74
2023/02/22 15:43:08;;;;;;;5.13;4.10;;;18.80;31.80;;;;;;10363169;28;20643;-73
2023/02/22 15:48:13;;;;;;;4.27;3.80;;;18.70;31.90;;;;;;10363972;28;20284;-74
2023/02/22 15:53:28;;;;;;;4.80;4.30;;;18.60;32.00;;;;;;10365297;28;20230;-74
2023/02/22 15:58:31;;;;;;;4.60;4.20;;;18.50;32.20;;;;;;10362223;28;20252;-74
2023/02/22 16:03:43;;;;;;;4.30;3.90;;;18.40;32.20;;;;;;10363572;28;20625;-75
2023/02/22 16:08:51;;;;;;;5.00;4.50;;;18.30;32.50;;;;;;10362873;28;20230;-74
2023/02/22 16:14:01;;;;;;;4.63;4.23;;;18.20;32.70;;;;;;10361527;28;20753;-74
2023/02/22 16:19:27;;;;;;;4.57;4.17;;;18.10;32.80;;;;;;10363328;28;20233;-74
2023/02/22 16:24:33;;;;;;;5.17;4.67;;;18.00;33.00;;;;;;10360843;28;20229;-74
2023/02/22 16:29:37;;;;;;;5.40;4.90;;;17.90;33.10;;;;;;10362135;28;20589;-74
2023/02/22 16:34:40;;;;;;;5.50;5.00;;;17.80;32.90;;;;;;10362786;28;20233;-74
2023/02/22 16:39:45;;;;;;;8.17;5.33;;;17.70;32.90;;;;;;10361345;28;20646;-74
2023/02/22 16:44:49;;;;;;;5.40;4.80;;;17.60;33.20;;;;;;10360913;28;20233;-74
2023/02/22 16:49:52;;;;;;;7.93;5.90;;;17.50;33.00;;;;;;10360903;28;20580;-74
2023/02/22 16:54:57;;;;;;;7.33;5.33;;;17.50;33.10;;;;;;10360318;28;20592;-74
2023/02/22 17:00:00;;;;;;;6.37;5.77;;;17.30;33.20;;;;;;10360514;28;20229;-74
2023/02/22 17:05:03;;;;;;;6.83;5.50;;;17.30;33.30;;;;;;10360670;28;20237;-74
2023/02/22 17:10:08;;;;;;;5.47;4.97;;;17.20;33.30;;;;;;10360076;28;20742;-74
2023/02/22 17:15:19;;;;;;;5.90;5.40;;;17.10;33.70;;;;;;10360323;28;20238;-74
2023/02/22 17:20:28;;;;;;;5.50;5.00;;;16.90;33.80;;;;;;10361430;28;20249;-75
2023/02/22 17:25:36;;;;;;;6.37;5.20;;;16.90;33.80;;;;;;10360158;28;20244;-74
2023/02/22 17:30:40;;;;;;;5.80;5.20;;;16.70;33.60;;;;;;10360462;28;20241;-74
2023/02/22 17:35:45;;;;;;;6.23;4.77;;;16.60;33.50;;;;;;10360198;28;20236;-74
2023/02/22 17:40:51;;;;;;;4.90;4.50;;;16.60;33.50;;;;;;10358805;28;20352;-74
2023/02/22 17:45:54;;;;;;;5.83;5.23;;;16.50;33.40;;;;;;10359451;28;20230;-74
2023/02/22 17:50:57;;;;;;;7.30;6.57;;;16.40;33.30;;;;;;10358903;28;20223;-74
2023/02/22 17:56:06;;;;;;;8.43;6.63;;;16.40;33.30;;;;;;10359614;28;20230;-75
2023/02/22 18:01:19;;;;;;;6.50;5.70;;;16.30;34.00;;;;;;10359036;28;20698;-74
2023/02/22 18:06:27;;;;;;;6.20;5.60;;;16.20;33.90;;;;;;10360991;28;20257;-74
2023/02/22 18:11:31;;;;;;;5.63;4.93;;;16.10;33.50;;;;;;10359292;28;20237;-74
2023/02/22 18:16:37;;;;;;;14.67;13.17;;;16.00;33.60;;;;;;10359755;28;20226;-74
2023/02/22 18:21:40;;;;;;;14.03;12.73;;;16.00;33.40;;;;;;10358478;28;20226;-74
2023/02/22 18:26:45;;;;;;;13.73;12.43;;;15.80;33.50;;;;;;10359793;28;20234;-74
2023/02/22 18:31:51;;;;;;;13.17;11.87;;;15.70;33.80;;;;;;10358106;28;20230;-74
2023/02/22 18:36:55;;;;;;;16.37;14.60;;;15.70;33.70;;;;;;10357047;28;20241;-74
2023/02/22 18:41:59;;;;;;;16.80;14.07;;;15.60;33.80;;;;;;10358450;28;20253;-74
2023/02/22 18:47:03;;;;;;;14.67;13.10;;;15.50;33.80;;;;;;10357507;28;20226;-74
2023/02/22 18:52:06;;;;;;;16.70;14.90;;;15.40;33.70;;;;;;10364404;28;20727;-74
2023/02/22 18:57:11;;;;;;;14.10;11.97;;;15.40;33.70;;;;;;10366205;28;20246;-74
2023/02/22 19:02:19;;;;;;;11.07;9.97;;;15.30;33.90;;;;;;10366360;28;20725;-74
2023/02/22 19:07:24;;;;;;;10.73;9.63;;;15.10;33.80;;;;;;10366095;28;20234;-75
2023/02/22 19:12:30;;;;;;;12.63;10.77;;;14.90;33.90;;;;;;10366059;28;20261;-74
2023/02/22 19:17:36;;;;;;;12.20;11.00;;;14.80;34.10;;;;;;10366013;28;20230;-74
2023/02/22 19:22:39;;;;;;;16.67;14.87;;;14.60;34.10;;;;;;10365543;28;20591;-74
2023/02/22 19:27:44;;;;;;;44.00;31.20;;;14.50;34.00;;;;;;10365232;28;20249;-74
2023/02/22 19:32:47;;;;;;;37.50;26.57;;;14.40;34.30;;;;;;10364733;28;20721;-74
2023/02/22 19:37:52;;;;;;;19.57;14.33;;;14.20;34.20;;;;;;10365876;28;20280;-74
2023/02/22 19:42:57;;;;;;;11.37;9.90;;;14.20;34.30;;;;;;10364588;28;20714;-74
2023/02/22 19:48:00;;;;;;;8.70;7.90;;;14.00;34.50;;;;;;10363018;28;20239;-74
2023/02/22 19:53:04;;;;;;;8.13;7.33;;;13.90;34.20;;;;;;10364819;28;20227;-73
2023/02/22 19:58:09;;;;;;;8.87;7.97;;;13.80;34.30;;;;;;10366751;28;20231;-74
2023/02/22 20:03:14;;;;;;;8.60;7.80;;;13.70;34.60;;;;;;10363468;28;20617;-74
2023/02/22 20:08:17;;;;;;;8.10;7.40;;;13.60;34.30;;;;;;10362230;28;20329;-74
2023/02/22 20:13:21;;;;;;;8.13;7.33;;;13.60;34.30;;;;;;10364490;28;20281;-74
2023/02/22 20:18:24;;;;;;;8.90;8.10;;;13.60;34.60;;;;;;10363409;28;20226;-74
2023/02/22 20:23:28;;;;;;;9.63;8.60;;;13.60;34.50;;;;;;10362842;28;20234;-74
2023/02/22 20:28:32;;;;;;;10.07;9.10;;;13.50;34.40;;;;;;10361961;28;20238;-75
2023/02/22 20:33:36;;;;;;;9.13;8.27;;;13.50;34.50;;;;;;10362133;28;20230;-74
2023/02/22 20:38:39;;;;;;;10.03;9.07;;;13.40;34.30;;;;;;10362477;28;20300;-74
2023/02/22 20:43:44;;;;;;;14.37;12.83;;;13.40;34.50;;;;;;10362629;28;20226;-74
2023/02/22 20:48:48;;;;;;;15.47;13.10;;;13.30;34.60;;;;;;10362683;28;20234;-74
2023/02/22 20:53:51;;;;;;;13.13;11.70;;;13.30;34.40;;;;;;10361920;28;20249;-74
2023/02/22 20:58:58;;;;;;;15.33;12.80;;;13.20;35.00;;;;;;10362567;28;20238;-74
2023/02/22 21:04:02;;;;;;;10.93;9.63;;;13.10;34.70;;;;;;10361177;28;20241;-74
2023/02/22 21:09:07;;;;;;;10.33;9.33;;;13.00;34.30;;;;;;10360138;28;20230;-74
2023/02/22 21:14:17;;;;;;;11.80;9.70;;;13.00;34.40;;;;;;10360495;28;20736;-74
2023/02/22 21:19:24;;;;;;;10.13;9.13;;;12.90;34.50;;;;;;10361257;28;20261;-74
2023/02/22 21:24:29;;;;;;;14.90;13.20;;;12.80;34.30;;;;;;10360291;28;20796;-74
2023/02/22 21:29:34;;;;;;;12.17;9.90;;;12.80;34.50;;;;;;10358400;28;20234;-74
2023/02/22 21:34:38;;;;;;;11.23;10.03;;;12.70;34.60;;;;;;10360461;28;20312;-74
2023/02/22 21:39:46;;;;;;;11.60;10.33;;;12.60;34.30;;;;;;10362059;28;20218;-74
2023/02/22 21:44:54;;;;;;;32.13;24.87;;;12.40;34.30;;;;;;10360431;28;20285;-74
2023/02/22 21:49:58;;;;;;;15.27;12.57;;;12.10;34.90;;;;;;10358732;28;20229;-74
2023/02/22 21:55:01;;;;;;;14.83;12.07;;;11.90;34.90;;;;;;10359741;28;20460;-74
2023/02/22 22:00:16;;;;;;;10.37;8.40;;;11.80;35.30;;;;;;10360301;28;20230;-74
2023/02/22 22:05:30;;;;;;;14.23;12.63;;;11.80;35.70;;;;;;10359062;28;20234;-74
2023/02/22 22:10:33;;;;;;;16.37;13.93;;;11.80;35.50;;;;;;10358267;28;20718;-74
2023/02/22 22:15:38;;;;;;;12.40;11.10;;;11.80;35.50;;;;;;10358955;28;20642;-74
2023/02/22 22:20:43;;;;;;;12.03;9.23;;;11.70;35.80;;;;;;10358960;28;20230;-74
2023/02/22 22:25:49;;;;;;;10.30;8.50;;;11.70;35.70;;;;;;10359681;28;20887;-74
2023/02/22 22:30:54;;;;;;;9.63;8.53;;;11.70;35.80;;;;;;10358216;28;20254;-74
2023/02/22 22:35:57;;;;;;;12.60;11.20;;;11.60;36.10;;;;;;10358002;28;20240;-74
2023/02/22 22:41:01;;;;;;;11.47;10.33;;;11.60;35.80;;;;;;10358764;28;20222;-74
2023/02/22 22:46:06;;;;;;;10.63;9.63;;;11.60;36.00;;;;;;10358431;28;20237;-73
2023/02/22 22:51:11;;;;;;;10.13;8.70;;;11.60;36.30;;;;;;10358289;28;20614;-74
2023/02/22 22:56:16;;;;;;;10.30;9.27;;;11.60;36.30;;;;;;10359273;28;20253;-74
2023/02/22 23:01:25;;;;;;;10.03;9.00;;;11.60;36.30;;;;;;10358529;28;20707;-74
2023/02/22 23:06:31;;;;;;;11.97;9.40;;;11.60;36.70;;;;;;10357066;28;20309;-74
2023/02/22 23:11:35;;;;;;;10.13;8.57;;;11.50;36.20;;;;;;10357594;28;20718;-74
2023/02/22 23:16:40;;;;;;;9.10;8.17;;;11.40;35.90;;;;;;10357902;28;20237;-74
2023/02/22 23:21:43;;;;;;;10.23;8.80;;;11.40;36.30;;;;;;10357039;28;20241;-74
2023/02/22 23:26:48;;;;;;;12.67;9.00;;;11.20;36.10;;;;;;10358014;28;20238;-74
2023/02/22 23:31:53;;;;;;;8.73;7.83;;;11.10;36.40;;;;;;10356167;28;20225;-74
2023/02/22 23:36:56;;;;;;;10.70;8.70;;;11.00;36.70;;;;;;10359113;28;20645;-74
2023/02/22 23:41:59;;;;;;;10.77;8.70;;;10.90;36.50;;;;;;10364451;28;20698;-74
2023/02/22 23:47:04;;;;;;;9.40;8.07;;;10.80;36.60;;;;;;10364183;28;20230;-73
2023/02/22 23:52:08;;;;;;;9.60;8.60;;;10.70;36.90;;;;;;10363815;28;20231;-73
2023/02/22 23:57:11;;;;;;;10.40;8.53;;;10.70;36.90;;;;;;10363239;28;20237;-73
